sensor_id;sensor_type;location;lat;lon;timestamp;P1;durP1;ratioP1;P2;durP2;ratioP2
11677;SDS011;5895;41.950;24.372;2023-04-03T00:02:14;4.43;;;3.65;;
11677;SDS011;5895;41.950;24.372;2023-04-03T00:04:41;4.35;;;2.95;;
11677;SDS011;5895;41.950;24.372;2023-04-03T00:07:08;2.67;;;2.03;;
11677;SDS011;5895;41.950;24.372;2023-04-03T00:09:37;4.15;;;1.90;;
11677;SDS011;5895;41.950;24.372;2023-04-03T00:12:04;1.60;;;1.50;;
11677;SDS011;5895;41.950;24.372;2023-04-03T00:14:31;1.65;;;1.55;;
11677;SDS011;5895;41.950;24.372;2023-04-03T00:16:58;3.40;;;1.40;;
11677;SDS011;5895;41.950;24.372;2023-04-03T00:19:25;3.63;;;1.45;;
11677;SDS011;5895;41.950;24.372;2023-04-03T00:21:53;1.80;;;1.42;;
11677;SDS011;5895;41.950;24.372;2023-04-03T00:24:20;2.45;;;1.33;;
11677;SDS011;5895;41.950;24.372;2023-04-03T00:26:48;1.38;;;1.27;;
11677;SDS011;5895;41.950;24.372;2023-04-03T00:29:15;1.35;;;1.25;;
11677;SDS011;5895;41.950;24.372;2023-04-03T00:31:43;1.20;;;1.10;;
11677;SDS011;5895;41.950;24.372;2023-04-03T00:34:10;1.38;;;1.10;;
11677;SDS011;5895;41.950;24.372;2023-04-03T00:36:37;1.30;;;1.20;;
11677;SDS011;5895;41.950;24.372;2023-04-03T00:39:04;1.73;;;1.10;;
11677;SDS011;5895;41.950;24.372;2023-04-03T00:41:31;1.10;;;1.00;;
11677;SDS011;5895;41.950;24.372;2023-04-03T00:44:00;1.27;;;1.17;;
11677;SDS011;5895;41.950;24.372;2023-04-03T00:46:28;1.27;;;1.17;;
11677;SDS011;5895;41.950;24.372;2023-04-03T00:48:55;2.20;;;1.00;;
11677;SDS011;5895;41.950;24.372;2023-04-03T00:51:23;1.20;;;1.10;;
11677;SDS011;5895;41.950;24.372;2023-04-03T00:53:52;2.70;;;1.10;;
11677;SDS011;5895;41.950;24.372;2023-04-03T00:56:23;2.05;;;1.33;;
11677;SDS011;5895;41.950;24.372;2023-04-03T00:58:53;1.35;;;1.17;;
11677;SDS011;5895;41.950;24.372;2023-04-03T01:01:27;1.20;;;1.10;;
11677;SDS011;5895;41.950;24.372;2023-04-03T01:03:55;1.20;;;1.10;;
11677;SDS011;5895;41.950;24.372;2023-04-03T01:06:24;1.75;;;1.20;;
11677;SDS011;5895;41.950;24.372;2023-04-03T01:08:56;1.30;;;1.20;;
11677;SDS011;5895;41.950;24.372;2023-04-03T01:11:23;2.17;;;1.30;;
11677;SDS011;5895;41.950;24.372;2023-04-03T01:13:51;1.30;;;1.20;;
11677;SDS011;5895;41.950;24.372;2023-04-03T01:16:18;1.58;;;1.30;;
11677;SDS011;5895;41.950;24.372;2023-04-03T01:18:47;1.30;;;1.20;;
11677;SDS011;5895;41.950;24.372;2023-04-03T01:24:21;1.38;;;1.27;;
11677;SDS011;5895;41.950;24.372;2023-04-03T01:26:55;1.40;;;1.30;;
11677;SDS011;5895;41.950;24.372;2023-04-03T01:29:23;1.13;;;1.08;;
11677;SDS011;5895;41.950;24.372;2023-04-03T01:31:52;2.58;;;1.10;;
11677;SDS011;5895;41.950;24.372;2023-04-03T01:34:20;4.45;;;1.30;;
11677;SDS011;5895;41.950;24.372;2023-04-03T01:36:48;1.30;;;1.20;;
11677;SDS011;5895;41.950;24.372;2023-04-03T01:39:15;1.50;;;1.00;;
11677;SDS011;5895;41.950;24.372;2023-04-03T01:41:43;1.20;;;1.10;;
11677;SDS011;5895;41.950;24.372;2023-04-03T01:44:11;1.33;;;1.02;;
11677;SDS011;5895;41.950;24.372;2023-04-03T01:46:38;1.30;;;1.20;;
11677;SDS011;5895;41.950;24.372;2023-04-03T01:49:07;1.20;;;1.10;;
11677;SDS011;5895;41.950;24.372;2023-04-03T01:51:35;1.40;;;1.30;;
11677;SDS011;5895;41.950;24.372;2023-04-03T01:54:03;1.30;;;1.20;;
11677;SDS011;5895;41.950;24.372;2023-04-03T01:56:30;1.20;;;1.10;;
11677;SDS011;5895;41.950;24.372;2023-04-03T01:58:57;1.40;;;1.30;;
11677;SDS011;5895;41.950;24.372;2023-04-03T02:01:24;1.33;;;1.15;;
11677;SDS011;5895;41.950;24.372;2023-04-03T02:03:52;1.88;;;1.20;;
11677;SDS011;5895;41.950;24.372;2023-04-03T02:06:21;1.10;;;1.10;;
11677;SDS011;5895;41.950;24.372;2023-04-03T02:08:48;1.35;;;1.10;;
11677;SDS011;5895;41.950;24.372;2023-04-03T02:11:15;1.40;;;1.20;;
11677;SDS011;5895;41.950;24.372;2023-04-03T02:13:42;1.40;;;1.30;;
11677;SDS011;5895;41.950;24.372;2023-04-03T02:16:10;1.17;;;1.10;;
11677;SDS011;5895;41.950;24.372;2023-04-03T02:18:38;1.50;;;1.30;;
11677;SDS011;5895;41.950;24.372;2023-04-03T02:21:05;2.85;;;1.40;;
11677;SDS011;5895;41.950;24.372;2023-04-03T02:23:34;1.73;;;1.23;;
11677;SDS011;5895;41.950;24.372;2023-04-03T02:26:03;1.23;;;1.10;;
11677;SDS011;5895;41.950;24.372;2023-04-03T02:28:31;1.88;;;1.10;;
11677;SDS011;5895;41.950;24.372;2023-04-03T02:30:58;1.85;;;1.02;;
11677;SDS011;5895;41.950;24.372;2023-04-03T02:33:25;1.20;;;1.10;;
11677;SDS011;5895;41.950;24.372;2023-04-03T02:35:53;1.45;;;1.10;;
11677;SDS011;5895;41.950;24.372;2023-04-03T02:38:20;1.27;;;1.17;;
11677;SDS011;5895;41.950;24.372;2023-04-03T02:40:49;0.93;;;0.93;;
11677;SDS011;5895;41.950;24.372;2023-04-03T02:43:17;1.95;;;1.45;;
11677;SDS011;5895;41.950;24.372;2023-04-03T02:45:44;1.27;;;1.10;;
11677;SDS011;5895;41.950;24.372;2023-04-03T02:48:11;1.45;;;1.33;;
11677;SDS011;5895;41.950;24.372;2023-04-03T02:50:39;1.42;;;1.33;;
11677;SDS011;5895;41.950;24.372;2023-04-03T02:53:07;1.33;;;1.20;;
11677;SDS011;5895;41.950;24.372;2023-04-03T02:55:34;1.20;;;1.10;;
11677;SDS011;5895;41.950;24.372;2023-04-03T02:58:02;1.25;;;1.10;;
11677;SDS011;5895;41.950;24.372;2023-04-03T03:00:29;2.90;;;2.10;;
11677;SDS011;5895;41.950;24.372;2023-04-03T03:02:57;1.70;;;1.60;;
11677;SDS011;5895;41.950;24.372;2023-04-03T03:05:24;1.42;;;1.33;;
11677;SDS011;5895;41.950;24.372;2023-04-03T03:07:51;2.55;;;1.20;;
11677;SDS011;5895;41.950;24.372;2023-04-03T03:10:18;1.30;;;1.20;;
11677;SDS011;5895;41.950;24.372;2023-04-03T03:12:46;2.20;;;1.10;;
11677;SDS011;5895;41.950;24.372;2023-04-03T03:15:14;1.40;;;1.30;;
11677;SDS011;5895;41.950;24.372;2023-04-03T03:17:42;1.58;;;1.10;;
11677;SDS011;5895;41.950;24.372;2023-04-03T03:20:10;1.20;;;1.10;;
11677;SDS011;5895;41.950;24.372;2023-04-03T03:22:39;1.88;;;1.10;;
11677;SDS011;5895;41.950;24.372;2023-04-03T03:25:06;1.30;;;1.20;;
11677;SDS011;5895;41.950;24.372;2023-04-03T03:27:34;1.40;;;1.10;;
11677;SDS011;5895;41.950;24.372;2023-04-03T03:30:01;1.20;;;1.10;;
11677;SDS011;5895;41.950;24.372;2023-04-03T03:32:30;1.77;;;1.30;;
11677;SDS011;5895;41.950;24.372;2023-04-03T03:34:57;2.08;;;1.40;;
11677;SDS011;5895;41.950;24.372;2023-04-03T03:37:24;2.75;;;1.20;;
11677;SDS011;5895;41.950;24.372;2023-04-03T03:39:52;2.15;;;1.10;;
11677;SDS011;5895;41.950;24.372;2023-04-03T03:42:19;1.10;;;1.05;;
11677;SDS011;5895;41.950;24.372;2023-04-03T03:44:46;1.13;;;1.02;;
11677;SDS011;5895;41.950;24.372;2023-04-03T03:47:13;1.20;;;1.10;;
11677;SDS011;5895;41.950;24.372;2023-04-03T03:49:42;1.52;;;1.23;;
11677;SDS011;5895;41.950;24.372;2023-04-03T03:52:09;1.33;;;1.23;;
11677;SDS011;5895;41.950;24.372;2023-04-03T03:54:36;1.75;;;1.25;;
11677;SDS011;5895;41.950;24.372;2023-04-03T03:57:04;1.30;;;1.20;;
11677;SDS011;5895;41.950;24.372;2023-04-03T03:59:31;1.85;;;1.20;;
11677;SDS011;5895;41.950;24.372;2023-04-03T04:01:58;1.33;;;1.23;;
11677;SDS011;5895;41.950;24.372;2023-04-03T04:04:26;1.63;;;1.30;;
11677;SDS011;5895;41.950;24.372;2023-04-03T04:06:54;1.30;;;1.20;;
11677;SDS011;5895;41.950;24.372;2023-04-03T04:09:22;1.58;;;1.38;;
11677;SDS011;5895;41.950;24.372;2023-04-03T04:11:49;5.55;;;3.72;;
11677;SDS011;5895;41.950;24.372;2023-04-03T04:14:16;6.30;;;4.00;;
11677;SDS011;5895;41.950;24.372;2023-04-03T04:16:43;3.28;;;2.85;;
11677;SDS011;5895;41.950;24.372;2023-04-03T04:19:10;3.30;;;2.90;;
11677;SDS011;5895;41.950;24.372;2023-04-03T04:21:38;4.68;;;2.65;;
11677;SDS011;5895;41.950;24.372;2023-04-03T04:24:08;2.35;;;2.05;;
11677;SDS011;5895;41.950;24.372;2023-04-03T04:26:35;1.58;;;1.48;;
11677;SDS011;5895;41.950;24.372;2023-04-03T04:29:02;2.40;;;1.38;;
11677;SDS011;5895;41.950;24.372;2023-04-03T04:31:30;1.38;;;1.27;;
11677;SDS011;5895;41.950;24.372;2023-04-03T04:33:57;1.70;;;1.60;;
11677;SDS011;5895;41.950;24.372;2023-04-03T04:36:24;2.80;;;2.50;;
11677;SDS011;5895;41.950;24.372;2023-04-03T04:38:51;2.90;;;2.60;;
11677;SDS011;5895;41.950;24.372;2023-04-03T04:41:20;3.80;;;3.40;;
11677;SDS011;5895;41.950;24.372;2023-04-03T04:43:48;3.25;;;2.80;;
11677;SDS011;5895;41.950;24.372;2023-04-03T04:46:16;4.90;;;3.85;;
11677;SDS011;5895;41.950;24.372;2023-04-03T04:48:43;9.57;;;7.03;;
11677;SDS011;5895;41.950;24.372;2023-04-03T04:51:11;6.72;;;5.32;;
11677;SDS011;5895;41.950;24.372;2023-04-03T04:53:38;4.00;;;3.55;;
11677;SDS011;5895;41.950;24.372;2023-04-03T04:56:05;3.13;;;2.70;;
11677;SDS011;5895;41.950;24.372;2023-04-03T04:58:34;2.80;;;2.60;;
11677;SDS011;5895;41.950;24.372;2023-04-03T05:01:02;2.70;;;2.40;;
11677;SDS011;5895;41.950;24.372;2023-04-03T05:03:30;5.53;;;5.00;;
11677;SDS011;5895;41.950;24.372;2023-04-03T05:05:58;6.57;;;5.43;;
11677;SDS011;5895;41.950;24.372;2023-04-03T05:08:25;13.20;;;10.75;;
11677;SDS011;5895;41.950;24.372;2023-04-03T05:10:52;32.55;;;21.13;;
11677;SDS011;5895;41.950;24.372;2023-04-03T05:13:20;20.58;;;15.05;;
11677;SDS011;5895;41.950;24.372;2023-04-03T05:15:49;12.48;;;9.75;;
11677;SDS011;5895;41.950;24.372;2023-04-03T05:18:16;19.30;;;14.75;;
11677;SDS011;5895;41.950;24.372;2023-04-03T05:20:43;17.25;;;11.43;;
11677;SDS011;5895;41.950;24.372;2023-04-03T05:23:10;13.77;;;8.43;;
11677;SDS011;5895;41.950;24.372;2023-04-03T05:25:37;13.65;;;11.38;;
11677;SDS011;5895;41.950;24.372;2023-04-03T05:28:05;14.63;;;10.40;;
11677;SDS011;5895;41.950;24.372;2023-04-03T05:30:33;12.68;;;10.77;;
11677;SDS011;5895;41.950;24.372;2023-04-03T05:33:01;8.15;;;7.00;;
11677;SDS011;5895;41.950;24.372;2023-04-03T05:35:29;4.72;;;4.25;;
11677;SDS011;5895;41.950;24.372;2023-04-03T05:37:56;4.22;;;3.45;;
11677;SDS011;5895;41.950;24.372;2023-04-03T05:40:23;2.65;;;2.45;;
11677;SDS011;5895;41.950;24.372;2023-04-03T05:42:50;2.95;;;2.70;;
11677;SDS011;5895;41.950;24.372;2023-04-03T05:45:18;2.95;;;2.70;;
11677;SDS011;5895;41.950;24.372;2023-04-03T05:47:45;3.28;;;2.88;;
11677;SDS011;5895;41.950;24.372;2023-04-03T05:50:14;3.50;;;3.20;;
11677;SDS011;5895;41.950;24.372;2023-04-03T05:52:42;4.95;;;3.38;;
11677;SDS011;5895;41.950;24.372;2023-04-03T05:55:12;4.80;;;2.80;;
11677;SDS011;5895;41.950;24.372;2023-04-03T05:57:39;5.85;;;5.00;;
11677;SDS011;5895;41.950;24.372;2023-04-03T06:00:07;25.95;;;20.20;;
11677;SDS011;5895;41.950;24.372;2023-04-03T06:02:39;18.38;;;13.90;;
11677;SDS011;5895;41.950;24.372;2023-04-03T06:05:07;15.80;;;12.57;;
11677;SDS011;5895;41.950;24.372;2023-04-03T06:07:38;16.08;;;12.68;;
11677;SDS011;5895;41.950;24.372;2023-04-03T06:10:06;21.73;;;17.67;;
11677;SDS011;5895;41.950;24.372;2023-04-03T06:12:34;22.45;;;17.42;;
11677;SDS011;5895;41.950;24.372;2023-04-03T06:15:01;32.45;;;27.00;;
11677;SDS011;5895;41.950;24.372;2023-04-03T06:17:28;21.98;;;17.10;;
11677;SDS011;5895;41.950;24.372;2023-04-03T06:19:56;27.30;;;19.70;;
11677;SDS011;5895;41.950;24.372;2023-04-03T06:22:23;26.23;;;21.20;;
11677;SDS011;5895;41.950;24.372;2023-04-03T06:24:54;19.98;;;16.98;;
11677;SDS011;5895;41.950;24.372;2023-04-03T06:27:21;15.68;;;12.25;;
11677;SDS011;5895;41.950;24.372;2023-04-03T06:29:48;14.20;;;10.95;;
11677;SDS011;5895;41.950;24.372;2023-04-03T06:32:15;13.93;;;11.88;;
11677;SDS011;5895;41.950;24.372;2023-04-03T06:34:43;14.75;;;11.05;;
11677;SDS011;5895;41.950;24.372;2023-04-03T06:37:10;14.90;;;12.70;;
11677;SDS011;5895;41.950;24.372;2023-04-03T06:39:41;21.40;;;16.17;;
11677;SDS011;5895;41.950;24.372;2023-04-03T06:42:10;13.95;;;10.80;;
11677;SDS011;5895;41.950;24.372;2023-04-03T06:44:37;15.07;;;10.90;;
11677;SDS011;5895;41.950;24.372;2023-04-03T06:47:04;10.13;;;8.93;;
11677;SDS011;5895;41.950;24.372;2023-04-03T06:49:31;12.43;;;8.48;;
11677;SDS011;5895;41.950;24.372;2023-04-03T06:51:58;13.00;;;11.32;;
11677;SDS011;5895;41.950;24.372;2023-04-03T06:54:25;10.82;;;9.13;;
11677;SDS011;5895;41.950;24.372;2023-04-03T06:56:53;17.13;;;12.70;;
11677;SDS011;5895;41.950;24.372;2023-04-03T06:59:21;15.75;;;12.73;;
11677;SDS011;5895;41.950;24.372;2023-04-03T07:01:49;12.82;;;10.75;;
11677;SDS011;5895;41.950;24.372;2023-04-03T07:04:16;10.48;;;8.68;;
11677;SDS011;5895;41.950;24.372;2023-04-03T07:06:45;9.23;;;8.23;;
11677;SDS011;5895;41.950;24.372;2023-04-03T07:09:12;8.02;;;6.15;;
11677;SDS011;5895;41.950;24.372;2023-04-03T07:11:39;6.80;;;5.43;;
11677;SDS011;5895;41.950;24.372;2023-04-03T07:14:06;8.48;;;5.80;;
11677;SDS011;5895;41.950;24.372;2023-04-03T07:16:35;8.18;;;7.07;;
11677;SDS011;5895;41.950;24.372;2023-04-03T07:19:02;9.35;;;7.40;;
11677;SDS011;5895;41.950;24.372;2023-04-03T07:21:29;7.22;;;6.25;;
11677;SDS011;5895;41.950;24.372;2023-04-03T07:23:56;7.45;;;6.10;;
11677;SDS011;5895;41.950;24.372;2023-04-03T07:26:24;7.93;;;6.90;;
11677;SDS011;5895;41.950;24.372;2023-04-03T07:28:51;9.45;;;6.63;;
11677;SDS011;5895;41.950;24.372;2023-04-03T07:31:18;9.18;;;6.60;;
11677;SDS011;5895;41.950;24.372;2023-04-03T07:33:47;5.25;;;3.60;;
11677;SDS011;5895;41.950;24.372;2023-04-03T07:36:15;5.78;;;3.38;;
11677;SDS011;5895;41.950;24.372;2023-04-03T07:38:44;2.58;;;2.33;;
11677;SDS011;5895;41.950;24.372;2023-04-03T07:41:12;2.35;;;2.15;;
11677;SDS011;5895;41.950;24.372;2023-04-03T07:43:42;4.03;;;2.58;;
11677;SDS011;5895;41.950;24.372;2023-04-03T07:46:10;3.95;;;2.22;;
11677;SDS011;5895;41.950;24.372;2023-04-03T07:48:37;2.20;;;2.00;;
11677;SDS011;5895;41.950;24.372;2023-04-03T07:51:06;2.70;;;2.03;;
11677;SDS011;5895;41.950;24.372;2023-04-03T07:53:33;3.90;;;2.05;;
11677;SDS011;5895;41.950;24.372;2023-04-03T07:56:01;2.40;;;2.20;;
11677;SDS011;5895;41.950;24.372;2023-04-03T07:58:28;3.67;;;1.98;;
11677;SDS011;5895;41.950;24.372;2023-04-03T08:00:55;2.72;;;2.40;;
11677;SDS011;5895;41.950;24.372;2023-04-03T08:03:23;5.00;;;2.80;;
11677;SDS011;5895;41.950;24.372;2023-04-03T08:05:50;2.47;;;1.90;;
11677;SDS011;5895;41.950;24.372;2023-04-03T08:08:20;1.95;;;1.80;;
11677;SDS011;5895;41.950;24.372;2023-04-03T08:10:49;2.03;;;1.90;;
11677;SDS011;5895;41.950;24.372;2023-04-03T08:13:17;2.08;;;1.90;;
11677;SDS011;5895;41.950;24.372;2023-04-03T08:15:44;1.80;;;1.70;;
11677;SDS011;5895;41.950;24.372;2023-04-03T08:18:11;2.20;;;1.50;;
11677;SDS011;5895;41.950;24.372;2023-04-03T08:20:39;1.80;;;1.48;;
11677;SDS011;5895;41.950;24.372;2023-04-03T08:23:06;2.47;;;1.50;;
11677;SDS011;5895;41.950;24.372;2023-04-03T08:25:38;1.98;;;1.70;;
11677;SDS011;5895;41.950;24.372;2023-04-03T08:28:06;2.17;;;1.98;;
11677;SDS011;5895;41.950;24.372;2023-04-03T08:30:33;2.60;;;2.17;;
11677;SDS011;5895;41.950;24.372;2023-04-03T08:33:03;2.63;;;2.00;;
11677;SDS011;5895;41.950;24.372;2023-04-03T08:35:31;3.95;;;1.73;;
11677;SDS011;5895;41.950;24.372;2023-04-03T08:37:58;1.98;;;1.77;;
11677;SDS011;5895;41.950;24.372;2023-04-03T08:40:26;2.22;;;1.67;;
11677;SDS011;5895;41.950;24.372;2023-04-03T08:42:57;2.05;;;1.85;;
11677;SDS011;5895;41.950;24.372;2023-04-03T08:45:42;2.10;;;1.98;;
11677;SDS011;5895;41.950;24.372;2023-04-03T08:48:14;2.67;;;1.95;;
11677;SDS011;5895;41.950;24.372;2023-04-03T08:50:44;2.45;;;1.73;;
11677;SDS011;5895;41.950;24.372;2023-04-03T08:53:15;1.77;;;1.52;;
11677;SDS011;5895;41.950;24.372;2023-04-03T08:55:44;2.40;;;1.77;;
11677;SDS011;5895;41.950;24.372;2023-04-03T08:58:16;2.20;;;1.55;;
11677;SDS011;5895;41.950;24.372;2023-04-03T09:00:46;2.85;;;1.88;;
11677;SDS011;5895;41.950;24.372;2023-04-03T09:03:16;2.85;;;2.38;;
11677;SDS011;5895;41.950;24.372;2023-04-03T09:05:46;4.05;;;3.28;;
11677;SDS011;5895;41.950;24.372;2023-04-03T09:08:24;3.45;;;2.03;;
11677;SDS011;5895;41.950;24.372;2023-04-03T09:10:58;4.70;;;2.15;;
11677;SDS011;5895;41.950;24.372;2023-04-03T09:13:36;3.03;;;2.67;;
11677;SDS011;5895;41.950;24.372;2023-04-03T09:16:14;2.38;;;1.92;;
11677;SDS011;5895;41.950;24.372;2023-04-03T09:18:52;2.33;;;2.00;;
11677;SDS011;5895;41.950;24.372;2023-04-03T09:21:27;2.83;;;2.30;;
11677;SDS011;5895;41.950;24.372;2023-04-03T09:24:01;2.72;;;2.40;;
11677;SDS011;5895;41.950;24.372;2023-04-03T09:26:31;2.67;;;2.45;;
11677;SDS011;5895;41.950;24.372;2023-04-03T09:29:07;2.63;;;2.42;;
11677;SDS011;5895;41.950;24.372;2023-04-03T09:31:36;2.30;;;2.10;;
11677;SDS011;5895;41.950;24.372;2023-04-03T09:34:06;2.78;;;2.50;;
11677;SDS011;5895;41.950;24.372;2023-04-03T09:36:38;4.75;;;2.50;;
11677;SDS011;5895;41.950;24.372;2023-04-03T09:39:09;2.25;;;2.00;;
11677;SDS011;5895;41.950;24.372;2023-04-03T09:41:38;3.47;;;2.03;;
11677;SDS011;5895;41.950;24.372;2023-04-03T09:44:19;4.35;;;2.90;;
11677;SDS011;5895;41.950;24.372;2023-04-03T09:46:48;2.75;;;2.30;;
11677;SDS011;5895;41.950;24.372;2023-04-03T09:49:15;2.72;;;2.15;;
11677;SDS011;5895;41.950;24.372;2023-04-03T09:51:45;2.70;;;2.40;;
11677;SDS011;5895;41.950;24.372;2023-04-03T09:54:26;2.60;;;2.40;;
11677;SDS011;5895;41.950;24.372;2023-04-03T09:56:59;5.88;;;4.22;;
11677;SDS011;5895;41.950;24.372;2023-04-03T09:59:32;5.60;;;4.63;;
11677;SDS011;5895;41.950;24.372;2023-04-03T10:02:00;6.25;;;4.72;;
11677;SDS011;5895;41.950;24.372;2023-04-03T10:04:47;8.18;;;4.60;;
11677;SDS011;5895;41.950;24.372;2023-04-03T10:07:26;4.93;;;3.50;;
11677;SDS011;5895;41.950;24.372;2023-04-03T10:09:55;6.90;;;4.38;;
11677;SDS011;5895;41.950;24.372;2023-04-03T10:12:23;3.75;;;2.83;;
11677;SDS011;5895;41.950;24.372;2023-04-03T10:14:55;2.60;;;2.38;;
11677;SDS011;5895;41.950;24.372;2023-04-03T10:17:26;4.47;;;2.95;;
11677;SDS011;5895;41.950;24.372;2023-04-03T10:20:03;3.58;;;2.90;;
11677;SDS011;5895;41.950;24.372;2023-04-03T10:22:41;2.30;;;2.10;;
11677;SDS011;5895;41.950;24.372;2023-04-03T10:25:17;3.10;;;2.55;;
11677;SDS011;5895;41.950;24.372;2023-04-03T10:27:53;6.47;;;4.45;;
11677;SDS011;5895;41.950;24.372;2023-04-03T10:30:32;12.35;;;9.25;;
11677;SDS011;5895;41.950;24.372;2023-04-03T10:33:09;3.10;;;2.78;;
11677;SDS011;5895;41.950;24.372;2023-04-03T10:35:47;4.65;;;3.45;;
11677;SDS011;5895;41.950;24.372;2023-04-03T10:38:28;2.85;;;2.60;;
11677;SDS011;5895;41.950;24.372;2023-04-03T10:41:04;4.38;;;3.63;;
11677;SDS011;5895;41.950;24.372;2023-04-03T10:43:39;3.72;;;2.45;;
11677;SDS011;5895;41.950;24.372;2023-04-03T10:46:13;4.25;;;3.70;;
11677;SDS011;5895;41.950;24.372;2023-04-03T10:48:51;5.07;;;3.03;;
11677;SDS011;5895;41.950;24.372;2023-04-03T10:51:33;3.47;;;3.00;;
11677;SDS011;5895;41.950;24.372;2023-04-03T10:54:08;4.40;;;4.00;;
11677;SDS011;5895;41.950;24.372;2023-04-03T10:56:40;5.75;;;4.70;;
11677;SDS011;5895;41.950;24.372;2023-04-03T10:59:16;6.88;;;5.40;;
11677;SDS011;5895;41.950;24.372;2023-04-03T11:01:52;3.50;;;2.47;;
11677;SDS011;5895;41.950;24.372;2023-04-03T11:04:23;3.42;;;3.13;;
11677;SDS011;5895;41.950;24.372;2023-04-03T11:06:55;5.32;;;4.82;;
11677;SDS011;5895;41.950;24.372;2023-04-03T11:09:27;6.70;;;5.20;;
11677;SDS011;5895;41.950;24.372;2023-04-03T11:11:57;6.07;;;4.05;;
11677;SDS011;5895;41.950;24.372;2023-04-03T11:14:31;4.68;;;4.07;;
11677;SDS011;5895;41.950;24.372;2023-04-03T11:17:04;3.95;;;3.55;;
11677;SDS011;5895;41.950;24.372;2023-04-03T11:19:39;4.80;;;4.30;;
11677;SDS011;5895;41.950;24.372;2023-04-03T11:22:13;4.57;;;4.18;;
11677;SDS011;5895;41.950;24.372;2023-04-03T11:24:51;3.13;;;2.83;;
11677;SDS011;5895;41.950;24.372;2023-04-03T11:27:25;2.97;;;2.25;;
11677;SDS011;5895;41.950;24.372;2023-04-03T11:30:00;4.05;;;1.92;;
11677;SDS011;5895;41.950;24.372;2023-04-03T11:35:41;1.70;;;1.60;;
11677;SDS011;5895;41.950;24.372;2023-04-03T11:38:13;2.20;;;1.75;;
11677;SDS011;5895;41.950;24.372;2023-04-03T11:40:48;1.92;;;1.80;;
11677;SDS011;5895;41.950;24.372;2023-04-03T11:43:21;2.03;;;1.90;;
11677;SDS011;5895;41.950;24.372;2023-04-03T11:45:52;1.80;;;1.70;;
11677;SDS011;5895;41.950;24.372;2023-04-03T11:51:38;3.75;;;2.42;;
11677;SDS011;5895;41.950;24.372;2023-04-03T12:03:31;2.28;;;1.95;;
11677;SDS011;5895;41.950;24.372;2023-04-03T12:09:23;3.83;;;3.50;;
11677;SDS011;5895;41.950;24.372;2023-04-03T12:11:56;5.90;;;5.30;;
11677;SDS011;5895;41.950;24.372;2023-04-03T12:14:25;3.67;;;3.38;;
11677;SDS011;5895;41.950;24.372;2023-04-03T12:16:54;6.05;;;5.43;;
11677;SDS011;5895;41.950;24.372;2023-04-03T12:19:33;5.10;;;4.60;;
11677;SDS011;5895;41.950;24.372;2023-04-03T12:22:13;5.30;;;4.68;;
11677;SDS011;5895;41.950;24.372;2023-04-03T12:24:42;3.38;;;3.08;;
11677;SDS011;5895;41.950;24.372;2023-04-03T12:27:23;2.65;;;2.45;;
11677;SDS011;5895;41.950;24.372;2023-04-03T12:29:58;2.83;;;2.63;;
11677;SDS011;5895;41.950;24.372;2023-04-03T12:32:52;3.10;;;2.80;;
11677;SDS011;5895;41.950;24.372;2023-04-03T12:35:40;3.83;;;3.53;;
11677;SDS011;5895;41.950;24.372;2023-04-03T12:44:08;5.47;;;4.97;;
11677;SDS011;5895;41.950;24.372;2023-04-03T12:46:50;4.68;;;4.28;;
11677;SDS011;5895;41.950;24.372;2023-04-03T12:49:24;6.88;;;4.97;;
11677;SDS011;5895;41.950;24.372;2023-04-03T12:52:00;4.28;;;3.75;;
11677;SDS011;5895;41.950;24.372;2023-04-03T12:54:34;6.30;;;5.70;;
11677;SDS011;5895;41.950;24.372;2023-04-03T12:57:11;5.03;;;4.63;;
11677;SDS011;5895;41.950;24.372;2023-04-03T12:59:39;5.10;;;4.60;;
11677;SDS011;5895;41.950;24.372;2023-04-03T13:02:14;5.00;;;4.47;;
11677;SDS011;5895;41.950;24.372;2023-04-03T13:04:48;5.05;;;4.65;;
11677;SDS011;5895;41.950;24.372;2023-04-03T13:07:23;6.32;;;5.35;;
11677;SDS011;5895;41.950;24.372;2023-04-03T13:10:03;4.95;;;4.53;;
11677;SDS011;5895;41.950;24.372;2023-04-03T13:12:45;4.75;;;4.35;;
11677;SDS011;5895;41.950;24.372;2023-04-03T13:15:16;5.10;;;4.70;;
11677;SDS011;5895;41.950;24.372;2023-04-03T13:17:46;4.90;;;4.50;;
11677;SDS011;5895;41.950;24.372;2023-04-03T13:20:17;6.22;;;5.63;;
11677;SDS011;5895;41.950;24.372;2023-04-03T13:22:48;3.72;;;3.42;;
11677;SDS011;5895;41.950;24.372;2023-04-03T13:25:23;3.58;;;3.28;;
11677;SDS011;5895;41.950;24.372;2023-04-03T13:27:52;5.32;;;4.90;;
11677;SDS011;5895;41.950;24.372;2023-04-03T13:30:21;4.30;;;3.90;;
11677;SDS011;5895;41.950;24.372;2023-04-03T13:32:52;5.20;;;4.80;;
11677;SDS011;5895;41.950;24.372;2023-04-03T13:35:25;5.68;;;5.18;;
11677;SDS011;5895;41.950;24.372;2023-04-03T13:38:04;6.78;;;6.00;;
11677;SDS011;5895;41.950;24.372;2023-04-03T13:40:35;4.97;;;4.57;;
11677;SDS011;5895;41.950;24.372;2023-04-03T13:43:18;4.53;;;4.22;;
11677;SDS011;5895;41.950;24.372;2023-04-03T13:45:54;4.18;;;3.78;;
11677;SDS011;5895;41.950;24.372;2023-04-03T13:48:23;3.83;;;3.53;;
11677;SDS011;5895;41.950;24.372;2023-04-03T13:50:55;3.70;;;3.40;;
11677;SDS011;5895;41.950;24.372;2023-04-03T13:53:25;3.75;;;3.45;;
11677;SDS011;5895;41.950;24.372;2023-04-03T13:55:56;4.53;;;4.13;;
11677;SDS011;5895;41.950;24.372;2023-04-03T13:58:26;5.03;;;4.63;;
11677;SDS011;5895;41.950;24.372;2023-04-03T14:00:55;6.03;;;5.53;;
11677;SDS011;5895;41.950;24.372;2023-04-03T14:03:28;4.97;;;4.57;;
11677;SDS011;5895;41.950;24.372;2023-04-03T14:05:58;6.32;;;4.90;;
11677;SDS011;5895;41.950;24.372;2023-04-03T14:08:26;6.43;;;5.72;;
11677;SDS011;5895;41.950;24.372;2023-04-03T14:10:55;6.65;;;5.35;;
11677;SDS011;5895;41.950;24.372;2023-04-03T14:13:22;6.25;;;5.60;;
11677;SDS011;5895;41.950;24.372;2023-04-03T14:15:50;6.18;;;5.00;;
11677;SDS011;5895;41.950;24.372;2023-04-03T14:18:17;4.53;;;4.13;;
11677;SDS011;5895;41.950;24.372;2023-04-03T14:20:47;4.35;;;4.05;;
11677;SDS011;5895;41.950;24.372;2023-04-03T14:23:15;4.90;;;4.40;;
11677;SDS011;5895;41.950;24.372;2023-04-03T14:25:42;4.05;;;3.65;;
11677;SDS011;5895;41.950;24.372;2023-04-03T14:28:15;4.82;;;4.38;;
11677;SDS011;5895;41.950;24.372;2023-04-03T14:30:45;5.10;;;4.60;;
11677;SDS011;5895;41.950;24.372;2023-04-03T14:33:14;4.80;;;4.40;;
11677;SDS011;5895;41.950;24.372;2023-04-03T14:35:43;3.80;;;3.50;;
11677;SDS011;5895;41.950;24.372;2023-04-03T14:38:12;4.35;;;3.95;;
11677;SDS011;5895;41.950;24.372;2023-04-03T14:40:49;5.20;;;4.70;;
11677;SDS011;5895;41.950;24.372;2023-04-03T14:43:18;6.55;;;5.78;;
11677;SDS011;5895;41.950;24.372;2023-04-03T14:45:46;5.80;;;5.30;;
11677;SDS011;5895;41.950;24.372;2023-04-03T14:48:15;5.57;;;5.05;;
11677;SDS011;5895;41.950;24.372;2023-04-03T14:50:45;7.30;;;6.25;;
11677;SDS011;5895;41.950;24.372;2023-04-03T14:53:13;6.32;;;5.50;;
11677;SDS011;5895;41.950;24.372;2023-04-03T14:55:42;4.75;;;4.35;;
11677;SDS011;5895;41.950;24.372;2023-04-03T14:58:12;5.25;;;4.72;;
11677;SDS011;5895;41.950;24.372;2023-04-03T15:00:42;4.60;;;4.20;;
11677;SDS011;5895;41.950;24.372;2023-04-03T15:03:14;4.40;;;4.00;;
11677;SDS011;5895;41.950;24.372;2023-04-03T15:05:42;3.70;;;3.40;;
11677;SDS011;5895;41.950;24.372;2023-04-03T15:08:18;3.20;;;3.00;;
11677;SDS011;5895;41.950;24.372;2023-04-03T15:10:47;3.95;;;3.55;;
11677;SDS011;5895;41.950;24.372;2023-04-03T15:13:16;3.40;;;3.10;;
11677;SDS011;5895;41.950;24.372;2023-04-03T15:15:45;3.33;;;3.03;;
11677;SDS011;5895;41.950;24.372;2023-04-03T15:18:15;4.40;;;4.00;;
11677;SDS011;5895;41.950;24.372;2023-04-03T15:20:44;4.30;;;3.90;;
11677;SDS011;5895;41.950;24.372;2023-04-03T15:23:12;3.22;;;2.92;;
11677;SDS011;5895;41.950;24.372;2023-04-03T15:25:41;2.10;;;1.90;;
11677;SDS011;5895;41.950;24.372;2023-04-03T15:28:09;2.60;;;2.40;;
11677;SDS011;5895;41.950;24.372;2023-04-03T15:30:45;5.13;;;4.45;;